Time;durP1;ratioP1;P1;durP2;ratioP2;P2;SDS_P1;SDS_P2;PMS_P1;PMS_P2;Temp;Humidity;BMP_temperature;BMP_pressure;BME280_temperature;BME280_humidity;BME280_pressure;Samples;Min_cycle;Max_cycle;Signal;HPM_P1;HPM_P2
2022/08/16 00:01:03;;;;;;;41.67;25.92;;;;;;;;;;5018304;28;20079;-81
2022/08/16 00:03:28;;;;;;;42.95;26.23;;;;;;;;;;5012710;28;20020;-80
2022/08/16 00:05:53;;;;;;;50.93;29.37;;;;;;;;;;5016117;28;20421;-79
2022/08/16 00:08:18;;;;;;;56.45;30.40;;;;;;;;;;5051492;28;20317;-80
2022/08/16 00:10:43;;;;;;;42.37;27.40;;;;;;;;;;5055828;28;20021;-81
2022/08/16 00:13:09;;;;;;;52.58;30.65;;;;;;;;;;5025755;28;20274;-81
2022/08/16 00:15:40;;;;;;;54.60;31.85;;;;;;;;;;5021707;28;20033;-81
2022/08/16 00:18:05;;;;;;;45.05;28.23;;;;;;;;;;5051499;28;20033;-79
2022/08/16 00:20:31;;;;;;;55.33;30.33;;;;;;;;;;5017833;28;20080;-80
2022/08/16 00:22:56;;;;;;;52.03;29.58;;;;;;;;;;5013598;28;20030;-80
2022/08/16 00:25:22;;;;;;;51.25;27.75;;;;;;;;;;5023075;28;20104;-81
2022/08/16 00:27:48;;;;;;;42.78;26.90;;;;;;;;;;5020926;28;20026;-79
2022/08/16 00:30:14;;;;;;;46.63;27.77;;;;;;;;;;5018064;28;20022;-79
2022/08/16 00:32:43;;;;;;;42.72;26.42;;;;;;;;;;5018122;28;20045;-80
2022/08/16 00:35:14;;;;;;;45.17;27.30;;;;;;;;;;5016728;28;20037;-80
2022/08/16 00:37:39;;;;;;;44.72;26.30;;;;;;;;;;5016672;28;20048;-80
2022/08/16 00:40:06;;;;;;;44.83;29.00;;;;;;;;;;5020595;28;20167;-79
2022/08/16 00:42:32;;;;;;;47.65;27.55;;;;;;;;;;5020529;28;20275;-80
2022/08/16 00:45:20;;;;;;;43.47;26.05;;;;;;;;;;5020309;28;20029;-80
2022/08/16 00:47:45;;;;;;;42.95;23.02;;;;;;;;;;4989747;28;20034;-81
2022/08/16 00:50:11;;;;;;;41.70;23.98;;;;;;;;;;5020761;28;20048;-81
2022/08/16 00:52:37;;;;;;;39.35;24.13;;;;;;;;;;5031059;28;20121;-80
2022/08/16 00:55:02;;;;;;;41.60;26.02;;;;;;;;;;5019969;28;20037;-79
2022/08/16 00:57:28;;;;;;;35.88;23.60;;;;;;;;;;5020690;28;20412;-79
2022/08/16 00:59:53;;;;;;;40.10;22.38;;;;;;;;;;5021517;28;22222;-81
2022/08/16 01:02:19;;;;;;;37.70;21.42;;;;;;;;;;5013493;28;20029;-80
2022/08/16 01:04:44;;;;;;;34.05;22.25;;;;;;;;;;5022554;28;20009;-79
2022/08/16 01:07:09;;;;;;;36.90;23.67;;;;;;;;;;5021129;28;20482;-81
2022/08/16 01:09:36;;;;;;;40.03;22.85;;;;;;;;;;5015877;28;20401;-79
2022/08/16 01:12:03;;;;;;;33.75;20.95;;;;;;;;;;5013275;28;20195;-81
2022/08/16 01:14:30;;;;;;;39.13;22.13;;;;;;;;;;5019689;28;20111;-79
2022/08/16 01:16:56;;;;;;;37.67;22.60;;;;;;;;;;5017180;28;20469;-79
2022/08/16 01:19:30;;;;;;;33.78;21.77;;;;;;;;;;5020859;28;20079;-79
2022/08/16 01:21:58;;;;;;;33.08;19.55;;;;;;;;;;5015408;28;20117;-80
2022/08/16 01:24:37;;;;;;;36.47;20.55;;;;;;;;;;5022093;28;20045;-80
2022/08/16 01:27:08;;;;;;;33.17;19.42;;;;;;;;;;5022960;28;20021;-80
2022/08/16 01:29:42;;;;;;;28.38;19.55;;;;;;;;;;5018309;28;21699;-78
2022/08/16 01:32:07;;;;;;;29.60;18.70;;;;;;;;;;5019643;28;20033;-78
2022/08/16 01:34:32;;;;;;;34.23;19.13;;;;;;;;;;5023088;28;20056;-79
2022/08/16 01:36:59;;;;;;;33.85;18.85;;;;;;;;;;5022153;28;20337;-79
2022/08/16 01:39:25;;;;;;;30.55;21.08;;;;;;;;;;5021102;28;20033;-80
2022/08/16 01:41:53;;;;;;;32.65;19.58;;;;;;;;;;5019222;28;20039;-79
2022/08/16 01:44:18;;;;;;;33.95;20.00;;;;;;;;;;5035103;28;20371;-79
2022/08/16 01:46:45;;;;;;;34.63;20.65;;;;;;;;;;5036408;28;20025;-79
2022/08/16 01:49:13;;;;;;;32.03;19.70;;;;;;;;;;5017272;28;20018;-79
2022/08/16 01:51:40;;;;;;;33.78;20.80;;;;;;;;;;5018842;28;20515;-80
2022/08/16 01:54:05;;;;;;;28.38;17.85;;;;;;;;;;5052795;28;20406;-78
2022/08/16 01:56:31;;;;;;;30.25;18.63;;;;;;;;;;5014874;28;20033;-79
2022/08/16 01:59:02;;;;;;;32.78;18.95;;;;;;;;;;5019457;28;20026;-80
2022/08/16 02:01:27;;;;;;;28.85;18.17;;;;;;;;;;5035817;28;20037;-78
2022/08/16 02:03:53;;;;;;;28.40;17.05;;;;;;;;;;5023741;28;20034;-79
2022/08/16 02:06:19;;;;;;;29.00;19.42;;;;;;;;;;5027469;28;20051;-80
2022/08/16 02:08:45;;;;;;;31.92;19.15;;;;;;;;;;5022869;28;20514;-79
2022/08/16 02:11:12;;;;;;;29.33;17.52;;;;;;;;;;5034192;28;20033;-79
2022/08/16 02:13:40;;;;;;;32.10;18.23;;;;;;;;;;5015801;28;20046;-78
2022/08/16 02:16:05;;;;;;;35.45;20.33;;;;;;;;;;5022343;28;20101;-78
2022/08/16 02:18:30;;;;;;;28.00;16.40;;;;;;;;;;5021073;28;20458;-79
2022/08/16 02:20:56;;;;;;;30.63;16.70;;;;;;;;;;5024041;28;20449;-78
2022/08/16 02:23:21;;;;;;;36.42;19.10;;;;;;;;;;5024026;28;20086;-79
2022/08/16 02:25:47;;;;;;;30.77;19.67;;;;;;;;;;5039938;28;20029;-79
2022/08/16 02:28:13;;;;;;;32.08;17.98;;;;;;;;;;5023836;28;20026;-78
2022/08/16 02:30:38;;;;;;;35.30;19.25;;;;;;;;;;5023303;28;20375;-79
2022/08/16 02:33:03;;;;;;;28.77;17.90;;;;;;;;;;5037622;28;20378;-78
2022/08/16 02:35:29;;;;;;;30.50;17.98;;;;;;;;;;5022756;28;20060;-80
2022/08/16 02:37:55;;;;;;;31.13;18.92;;;;;;;;;;5019881;28;20449;-79
2022/08/16 02:40:21;;;;;;;35.63;19.48;;;;;;;;;;5036734;28;20033;-78
2022/08/16 02:42:48;;;;;;;29.75;16.98;;;;;;;;;;5023078;28;20022;-80
2022/08/16 02:45:13;;;;;;;34.70;18.00;;;;;;;;;;5025126;28;20453;-80
2022/08/16 02:47:38;;;;;;;30.15;17.98;;;;;;;;;;5019952;28;21529;-79
2022/08/16 02:50:04;;;;;;;29.95;18.05;;;;;;;;;;5022839;28;20030;-79
2022/08/16 02:52:30;;;;;;;31.38;19.23;;;;;;;;;;5023359;28;20037;-80
2022/08/16 02:54:55;;;;;;;29.58;19.25;;;;;;;;;;5021825;28;20400;-78
2022/08/16 02:57:22;;;;;;;29.40;19.38;;;;;;;;;;5019487;28;20268;-78
2022/08/16 02:59:47;;;;;;;33.65;19.40;;;;;;;;;;5019733;28;20032;-80
2022/08/16 03:02:12;;;;;;;30.63;17.85;;;;;;;;;;5024070;28;21027;-78
2022/08/16 03:04:38;;;;;;;33.80;18.67;;;;;;;;;;5023226;28;20036;-77
2022/08/16 03:07:05;;;;;;;29.38;19.20;;;;;;;;;;5023280;28;20044;-79
2022/08/16 03:09:30;;;;;;;28.33;17.88;;;;;;;;;;5021777;28;20025;-78
2022/08/16 03:11:55;;;;;;;41.42;19.33;;;;;;;;;;5022223;28;20048;-77
2022/08/16 03:14:21;;;;;;;34.75;19.77;;;;;;;;;;5022181;28;20029;-78
2022/08/16 03:16:46;;;;;;;31.67;19.33;;;;;;;;;;5030043;28;20045;-80
2022/08/16 03:19:11;;;;;;;32.75;20.48;;;;;;;;;;5022910;28;20029;-79
2022/08/16 03:21:37;;;;;;;29.85;18.15;;;;;;;;;;5026891;28;20018;-78
2022/08/16 03:24:02;;;;;;;34.28;19.08;;;;;;;;;;5018210;28;20091;-78
2022/08/16 03:26:27;;;;;;;33.88;19.80;;;;;;;;;;5022361;28;20025;-79
2022/08/16 03:28:53;;;;;;;35.88;18.48;;;;;;;;;;5015528;28;20029;-79
2022/08/16 03:31:18;;;;;;;36.73;19.47;;;;;;;;;;5020869;28;20024;-80
2022/08/16 03:33:43;;;;;;;32.55;19.20;;;;;;;;;;5038659;28;20286;-78
2022/08/16 03:36:09;;;;;;;37.55;19.05;;;;;;;;;;5020565;28;20021;-78
2022/08/16 03:38:34;;;;;;;33.92;20.73;;;;;;;;;;5017474;28;20041;-79
2022/08/16 03:41:00;;;;;;;32.22;19.88;;;;;;;;;;5040260;28;20041;-77
2022/08/16 03:43:26;;;;;;;33.42;18.38;;;;;;;;;;5026451;28;20023;-77
2022/08/16 03:45:54;;;;;;;39.72;19.23;;;;;;;;;;5025351;28;20759;-77
2022/08/16 03:48:22;;;;;;;33.45;19.38;;;;;;;;;;5018839;28;20095;-77
2022/08/16 03:50:48;;;;;;;34.50;18.92;;;;;;;;;;5037389;28;20390;-78
2022/08/16 03:53:13;;;;;;;38.00;19.77;;;;;;;;;;5054093;28;20033;-77
2022/08/16 03:55:39;;;;;;;34.75;18.63;;;;;;;;;;5021474;28;20040;-79
2022/08/16 03:58:04;;;;;;;35.80;18.95;;;;;;;;;;5021227;28;20032;-79
2022/08/16 04:00:30;;;;;;;33.28;19.00;;;;;;;;;;5017827;28;20086;-77
2022/08/16 04:02:57;;;;;;;30.30;18.92;;;;;;;;;;5021474;28;20072;-79
2022/08/16 04:05:22;;;;;;;34.67;21.92;;;;;;;;;;5037522;28;20028;-79
2022/08/16 04:07:47;;;;;;;28.30;18.10;;;;;;;;;;5020997;28;20477;-79
2022/08/16 04:10:13;;;;;;;33.55;17.98;;;;;;;;;;5023620;28;20032;-78
2022/08/16 04:12:40;;;;;;;28.67;17.58;;;;;;;;;;5031892;28;20033;-78
2022/08/16 04:15:06;;;;;;;32.25;18.48;;;;;;;;;;5019160;28;20120;-79
2022/08/16 04:17:32;;;;;;;35.25;19.95;;;;;;;;;;5024813;28;20179;-78
2022/08/16 04:19:58;;;;;;;31.58;20.10;;;;;;;;;;5034935;28;20025;-79
2022/08/16 04:22:24;;;;;;;27.38;17.73;;;;;;;;;;5030499;28;20036;-79
2022/08/16 04:24:49;;;;;;;34.88;20.33;;;;;;;;;;5012383;28;20048;-77
2022/08/16 04:27:14;;;;;;;31.13;18.90;;;;;;;;;;5047335;28;20033;-80
2022/08/16 04:29:39;;;;;;;36.10;20.90;;;;;;;;;;5033929;28;20112;-78
2022/08/16 04:32:05;;;;;;;36.45;21.63;;;;;;;;;;5018313;28;20025;-79
2022/08/16 04:34:32;;;;;;;33.08;17.60;;;;;;;;;;5036494;28;20029;-79
2022/08/16 04:36:57;;;;;;;35.75;20.98;;;;;;;;;;5023009;28;20034;-77
2022/08/16 04:39:24;;;;;;;34.05;20.02;;;;;;;;;;5021790;28;20110;-77
2022/08/16 04:41:50;;;;;;;32.17;18.80;;;;;;;;;;5039625;28;20460;-78
2022/08/16 04:44:16;;;;;;;36.40;21.08;;;;;;;;;;5019818;28;20021;-77
2022/08/16 04:46:41;;;;;;;36.50;21.65;;;;;;;;;;5020213;28;20053;-77
2022/08/16 04:49:07;;;;;;;40.15;22.00;;;;;;;;;;5025854;28;20058;-79
2022/08/16 04:51:32;;;;;;;36.08;19.33;;;;;;;;;;5032112;28;20029;-79
2022/08/16 04:53:58;;;;;;;34.90;20.23;;;;;;;;;;5034151;28;20033;-79
2022/08/16 04:56:23;;;;;;;33.78;20.40;;;;;;;;;;5017298;28;20037;-79
2022/08/16 04:58:48;;;;;;;32.00;19.63;;;;;;;;;;5035919;28;20045;-77
2022/08/16 05:01:13;;;;;;;38.00;19.08;;;;;;;;;;5013146;28;20515;-78
2022/08/16 05:03:38;;;;;;;39.22;21.30;;;;;;;;;;5004698;28;20673;-78
2022/08/16 05:06:04;;;;;;;33.85;19.98;;;;;;;;;;5023716;28;20052;-78
2022/08/16 05:08:29;;;;;;;39.78;19.40;;;;;;;;;;5021669;28;20132;-78
2022/08/16 05:10:55;;;;;;;28.95;19.00;;;;;;;;;;5018324;28;20030;-79
2022/08/16 05:13:20;;;;;;;41.88;22.42;;;;;;;;;;5019807;28;20030;-79
2022/08/16 05:15:46;;;;;;;35.42;18.30;;;;;;;;;;5022237;28;20025;-78
2022/08/16 05:18:12;;;;;;;32.47;19.40;;;;;;;;;;5016448;28;20099;-79
2022/08/16 05:20:37;;;;;;;31.27;19.75;;;;;;;;;;5021849;28;20747;-80
2022/08/16 05:23:02;;;;;;;32.83;17.50;;;;;;;;;;5022278;28;20033;-79
2022/08/16 05:25:28;;;;;;;33.90;19.53;;;;;;;;;;5020196;28;20063;-81
2022/08/16 05:27:56;;;;;;;34.97;18.88;;;;;;;;;;5018487;28;20315;-80
2022/08/16 05:30:21;;;;;;;34.78;20.77;;;;;;;;;;5018606;28;20036;-78
2022/08/16 05:32:46;;;;;;;37.70;21.08;;;;;;;;;;5021614;28;20026;-79
2022/08/16 05:35:12;;;;;;;36.63;19.73;;;;;;;;;;5038399;28;20040;-77
2022/08/16 05:37:39;;;;;;;42.42;20.75;;;;;;;;;;5023464;28;20026;-77
2022/08/16 05:40:05;;;;;;;31.27;17.90;;;;;;;;;;5021443;28;20028;-77
2022/08/16 05:42:30;;;;;;;28.25;17.90;;;;;;;;;;5020922;28;20393;-78
2022/08/16 05:44:56;;;;;;;39.97;21.00;;;;;;;;;;5020750;28;20025;-79
2022/08/16 05:47:21;;;;;;;27.73;17.23;;;;;;;;;;5019609;28;20037;-79
2022/08/16 05:49:46;;;;;;;33.28;18.83;;;;;;;;;;5021154;28;20040;-79
2022/08/16 05:52:12;;;;;;;35.22;21.08;;;;;;;;;;5022817;28;20033;-80
2022/08/16 05:54:37;;;;;;;42.80;23.95;;;;;;;;;;5021437;28;20045;-79
2022/08/16 05:57:03;;;;;;;38.72;20.65;;;;;;;;;;5047488;28;20495;-78
2022/08/16 05:59:28;;;;;;;35.75;22.00;;;;;;;;;;5039527;28;20473;-80
2022/08/16 06:01:53;;;;;;;38.30;22.25;;;;;;;;;;5057472;28;20378;-80
2022/08/16 06:04:19;;;;;;;51.25;26.42;;;;;;;;;;5024228;28;20056;-78
2022/08/16 06:06:45;;;;;;;46.22;25.98;;;;;;;;;;5022978;28;20029;-80
2022/08/16 06:09:10;;;;;;;58.50;27.58;;;;;;;;;;5023351;28;20029;-80
2022/08/16 06:11:36;;;;;;;45.47;25.45;;;;;;;;;;5036862;28;20038;-78
2022/08/16 06:14:02;;;;;;;44.60;25.13;;;;;;;;;;5038218;28;20036;-78
2022/08/16 06:16:28;;;;;;;58.70;30.13;;;;;;;;;;5038415;28;20132;-78
2022/08/16 06:18:53;;;;;;;31.67;19.73;;;;;;;;;;5019984;28;20179;-80
2022/08/16 06:21:19;;;;;;;49.22;23.90;;;;;;;;;;5003907;28;20113;-81
2022/08/16 06:23:44;;;;;;;56.75;29.42;;;;;;;;;;5035671;28;20025;-80
2022/08/16 06:26:09;;;;;;;44.60;23.37;;;;;;;;;;5032559;28;20022;-80
2022/08/16 06:28:37;;;;;;;38.70;20.13;;;;;;;;;;5030367;28;20266;-81
2022/08/16 06:31:05;;;;;;;51.13;27.70;;;;;;;;;;5024724;28;20029;-81
2022/08/16 06:33:30;;;;;;;40.63;22.15;;;;;;;;;;5031429;28;20021;-81
2022/08/16 06:35:55;;;;;;;48.90;25.35;;;;;;;;;;5032137;28;20051;-80
2022/08/16 06:38:21;;;;;;;40.92;22.35;;;;;;;;;;5029158;28;20025;-81
2022/08/16 06:40:46;;;;;;;43.78;24.83;;;;;;;;;;5030986;28;20025;-81
2022/08/16 06:43:12;;;;;;;43.38;22.83;;;;;;;;;;5027398;28;20029;-82
2022/08/16 06:45:37;;;;;;;55.03;31.52;;;;;;;;;;5026412;28;20033;-82
2022/08/16 06:48:03;;;;;;;60.38;33.05;;;;;;;;;;5032127;28;20029;-82
2022/08/16 06:50:28;;;;;;;47.60;26.50;;;;;;;;;;5061780;28;20072;-82
2022/08/16 06:52:53;;;;;;;53.13;28.33;;;;;;;;;;5029373;28;20029;-82
2022/08/16 06:55:19;;;;;;;56.80;28.97;;;;;;;;;;5033162;28;20378;-83
2022/08/16 06:57:44;;;;;;;56.63;27.73;;;;;;;;;;5036426;28;20290;-82
2022/08/16 07:00:13;;;;;;;53.30;24.25;;;;;;;;;;5033307;28;20030;-82
2022/08/16 07:02:39;;;;;;;41.40;25.40;;;;;;;;;;5037575;28;20018;-82
2022/08/16 07:05:05;;;;;;;58.42;30.27;;;;;;;;;;5034592;28;20029;-81
2022/08/16 07:07:31;;;;;;;45.08;24.65;;;;;;;;;;5025853;28;20049;-82
2022/08/16 07:09:56;;;;;;;46.92;28.40;;;;;;;;;;5023648;28;20082;-81
2022/08/16 07:12:21;;;;;;;53.97;29.37;;;;;;;;;;5057536;28;20029;-82
2022/08/16 07:14:48;;;;;;;39.53;23.70;;;;;;;;;;5037905;28;20283;-82
2022/08/16 07:17:14;;;;;;;55.15;27.55;;;;;;;;;;5023027;28;20815;-83
2022/08/16 07:19:39;;;;;;;50.05;26.98;;;;;;;;;;5027555;28;20057;-83
2022/08/16 07:22:07;;;;;;;46.90;25.63;;;;;;;;;;5029538;28;20053;-83
2022/08/16 07:24:33;;;;;;;56.40;29.85;;;;;;;;;;5023008;28;20126;-82
2022/08/16 07:26:58;;;;;;;48.13;27.08;;;;;;;;;;5027610;28;20029;-82
2022/08/16 07:29:24;;;;;;;49.03;28.10;;;;;;;;;;5028681;28;20033;-83
2022/08/16 07:31:50;;;;;;;52.42;28.65;;;;;;;;;;5034870;28;20032;-82
2022/08/16 07:34:18;;;;;;;48.58;26.15;;;;;;;;;;5029631;28;20053;-83
2022/08/16 07:36:44;;;;;;;41.92;23.95;;;;;;;;;;5027444;28;20036;-83
2022/08/16 07:39:09;;;;;;;51.50;27.58;;;;;;;;;;5028416;28;20451;-82
2022/08/16 07:41:35;;;;;;;46.05;27.13;;;;;;;;;;5026993;28;20025;-82
2022/08/16 07:44:00;;;;;;;47.65;27.45;;;;;;;;;;5031076;28;20075;-83
2022/08/16 07:46:26;;;;;;;48.58;28.77;;;;;;;;;;5045454;28;20105;-82
2022/08/16 07:48:51;;;;;;;63.78;35.20;;;;;;;;;;5038872;28;20734;-83
2022/08/16 07:51:16;;;;;;;64.30;32.40;;;;;;;;;;5053137;28;20017;-83
2022/08/16 07:53:43;;;;;;;58.22;28.10;;;;;;;;;;5025122;28;20282;-83
2022/08/16 07:56:09;;;;;;;56.28;29.58;;;;;;;;;;5030248;28;20347;-83
2022/08/16 07:58:34;;;;;;;46.25;27.33;;;;;;;;;;5025372;28;20036;-82
2022/08/16 08:01:04;;;;;;;49.83;28.80;;;;;;;;;;5026720;28;20025;-83
2022/08/16 08:03:29;;;;;;;52.92;28.27;;;;;;;;;;5044481;28;20280;-82
2022/08/16 08:05:57;;;;;;;53.40;29.03;;;;;;;;;;5026818;28;20483;-83
2022/08/16 08:08:22;;;;;;;43.88;25.45;;;;;;;;;;5018353;28;20413;-82
2022/08/16 08:10:47;;;;;;;45.70;25.20;;;;;;;;;;5042126;28;20128;-84
2022/08/16 08:13:14;;;;;;;48.95;29.65;;;;;;;;;;5018712;28;20620;-83
2022/08/16 08:15:39;;;;;;;42.72;24.42;;;;;;;;;;5030380;28;20029;-83
2022/08/16 08:18:05;;;;;;;43.13;26.00;;;;;;;;;;5054668;28;20581;-83
2022/08/16 08:20:34;;;;;;;39.13;23.58;;;;;;;;;;5023103;28;20083;-83
2022/08/16 08:22:59;;;;;;;51.42;26.00;;;;;;;;;;5026720;28;20026;-84
2022/08/16 08:25:25;;;;;;;45.70;26.08;;;;;;;;;;5022492;28;20028;-84
2022/08/16 08:27:50;;;;;;;57.03;29.15;;;;;;;;;;5032879;28;20124;-83
2022/08/16 08:30:15;;;;;;;43.90;23.40;;;;;;;;;;5023033;28;20029;-84
2022/08/16 08:32:41;;;;;;;53.30;28.27;;;;;;;;;;5024134;28;20041;-83
2022/08/16 08:35:07;;;;;;;44.00;25.58;;;;;;;;;;5039089;28;20436;-84
2022/08/16 08:37:34;;;;;;;41.08;23.73;;;;;;;;;;5036489;28;20502;-83
2022/08/16 08:40:00;;;;;;;45.83;26.75;;;;;;;;;;5022660;28;20121;-83
2022/08/16 08:42:27;;;;;;;43.78;24.02;;;;;;;;;;5023004;28;20037;-84
2022/08/16 08:44:52;;;;;;;43.10;25.17;;;;;;;;;;5038657;28;20116;-84
2022/08/16 08:47:19;;;;;;;39.03;23.45;;;;;;;;;;5045796;28;20125;-84
2022/08/16 08:49:45;;;;;;;42.75;25.95;;;;;;;;;;5039997;28;20033;-84
2022/08/16 08:52:10;;;;;;;52.38;28.88;;;;;;;;;;5025716;28;20044;-84
2022/08/16 08:54:36;;;;;;;38.50;23.40;;;;;;;;;;5022209;28;20469;-84
2022/08/16 08:57:04;;;;;;;42.20;23.48;;;;;;;;;;5038415;28;20735;-83
2022/08/16 08:59:30;;;;;;;43.03;24.40;;;;;;;;;;5038634;28;20033;-85
2022/08/16 09:01:55;;;;;;;36.03;22.27;;;;;;;;;;5040204;28;20063;-84
2022/08/16 09:04:21;;;;;;;45.08;25.08;;;;;;;;;;5019367;28;20061;-84
2022/08/16 09:06:46;;;;;;;35.70;22.25;;;;;;;;;;5036246;28;20029;-83
2022/08/16 09:09:11;;;;;;;36.20;22.90;;;;;;;;;;5024045;28;20053;-85
2022/08/16 09:11:42;;;;;;;38.75;21.63;;;;;;;;;;5041467;28;20275;-83
2022/08/16 09:14:07;;;;;;;48.03;26.25;;;;;;;;;;5023388;28;20804;-86
2022/08/16 09:16:33;;;;;;;36.28;23.35;;;;;;;;;;5025489;28;20057;-84
2022/08/16 09:18:58;;;;;;;39.83;24.07;;;;;;;;;;5024787;28;20033;-86
2022/08/16 09:21:23;;;;;;;33.88;20.25;;;;;;;;;;5023539;28;20291;-85
2022/08/16 09:23:49;;;;;;;46.28;24.65;;;;;;;;;;5034807;28;20038;-87
2022/08/16 09:26:17;;;;;;;39.10;21.80;;;;;;;;;;5015864;28;20072;-78
2022/08/16 09:28:44;;;;;;;39.53;21.85;;;;;;;;;;5018787;28;20488;-79
2022/08/16 09:31:09;;;;;;;38.30;23.63;;;;;;;;;;5017397;28;20018;-79
2022/08/16 09:33:35;;;;;;;28.88;19.83;;;;;;;;;;5021345;28;20087;-80
2022/08/16 09:36:01;;;;;;;36.20;19.30;;;;;;;;;;5036085;28;20083;-80
2022/08/16 09:38:26;;;;;;;33.55;19.70;;;;;;;;;;5020302;28;20021;-80
2022/08/16 09:40:51;;;;;;;27.85;20.95;;;;;;;;;;5018683;28;20036;-81
2022/08/16 09:43:18;;;;;;;33.58;19.00;;;;;;;;;;5028665;28;20036;-79
2022/08/16 09:45:43;;;;;;;31.15;16.95;;;;;;;;;;5034488;28;20863;-80
2022/08/16 09:48:09;;;;;;;33.83;17.98;;;;;;;;;;5021673;28;20089;-80
2022/08/16 09:50:35;;;;;;;26.80;18.10;;;;;;;;;;5034799;28;20072;-79
2022/08/16 09:53:02;;;;;;;30.63;18.48;;;;;;;;;;5014002;28;20033;-79
2022/08/16 09:55:27;;;;;;;28.83;16.85;;;;;;;;;;5020457;28;20043;-80
2022/08/16 09:57:53;;;;;;;30.65;20.02;;;;;;;;;;5020470;28;20025;-80
2022/08/16 10:00:18;;;;;;;23.05;15.95;;;;;;;;;;5025474;28;20041;-80
2022/08/16 10:02:44;;;;;;;27.75;17.88;;;;;;;;;;5019690;28;20100;-80
2022/08/16 10:05:10;;;;;;;34.85;17.38;;;;;;;;;;5036024;28;20051;-80
2022/08/16 10:07:36;;;;;;;24.10;17.98;;;;;;;;;;5039173;28;20564;-79
2022/08/16 10:10:02;;;;;;;24.83;16.48;;;;;;;;;;5023238;28;20025;-79
2022/08/16 10:15:13;;;;;;;27.95;16.98;;;;;;;;;;5019644;28;20045;-79
2022/08/16 10:17:41;;;;;;;38.00;18.90;;;;;;;;;;5022626;28;20026;-79
2022/08/16 10:20:09;;;;;;;23.80;16.45;;;;;;;;;;5032693;28;20068;-81
2022/08/16 10:22:34;;;;;;;26.73;17.60;;;;;;;;;;5024245;28;20466;-79
2022/08/16 10:24:59;;;;;;;32.33;18.50;;;;;;;;;;5017484;28;20067;-80
2022/08/16 10:27:24;;;;;;;31.38;17.60;;;;;;;;;;5020242;28;20048;-80
2022/08/16 10:29:50;;;;;;;27.33;17.03;;;;;;;;;;5021503;28;20296;-80
2022/08/16 10:32:15;;;;;;;26.17;18.48;;;;;;;;;;5039099;28;20274;-79
2022/08/16 10:34:40;;;;;;;33.17;17.67;;;;;;;;;;5025926;28;20025;-79
2022/08/16 10:37:05;;;;;;;32.25;16.73;;;;;;;;;;5014348;28;20132;-80
2022/08/16 10:39:31;;;;;;;29.27;19.17;;;;;;;;;;5026783;28;20108;-79
2022/08/16 10:41:56;;;;;;;23.15;16.77;;;;;;;;;;5039355;28;20104;-79
2022/08/16 10:44:21;;;;;;;28.07;16.90;;;;;;;;;;5040829;28;20025;-78
2022/08/16 10:46:47;;;;;;;21.63;15.23;;;;;;;;;;5022184;28;20270;-80
2022/08/16 10:49:13;;;;;;;20.38;15.32;;;;;;;;;;5026033;28;20389;-79
2022/08/16 10:51:41;;;;;;;19.50;14.63;;;;;;;;;;5024356;28;20033;-78
2022/08/16 10:54:07;;;;;;;21.05;15.23;;;;;;;;;;5027716;28;20044;-80
2022/08/16 10:56:33;;;;;;;23.83;15.70;;;;;;;;;;5023075;28;20053;-78
2022/08/16 10:59:01;;;;;;;21.70;13.38;;;;;;;;;;5024047;28;20033;-79
2022/08/16 11:01:26;;;;;;;22.92;13.63;;;;;;;;;;5023988;28;20108;-78
2022/08/16 11:03:54;;;;;;;18.80;14.68;;;;;;;;;;5025995;28;20101;-78
2022/08/16 11:06:20;;;;;;;21.08;12.02;;;;;;;;;;5029390;28;20030;-78
2022/08/16 11:08:45;;;;;;;21.23;13.20;;;;;;;;;;5024473;28;20045;-77
2022/08/16 11:11:12;;;;;;;21.20;14.18;;;;;;;;;;5025879;28;20496;-79
2022/08/16 11:13:37;;;;;;;18.48;13.82;;;;;;;;;;5023934;28;20035;-78
2022/08/16 11:16:03;;;;;;;15.90;11.27;;;;;;;;;;5029162;28;20033;-79
2022/08/16 11:18:31;;;;;;;15.85;12.40;;;;;;;;;;5022361;28;20034;-77
2022/08/16 11:20:57;;;;;;;15.35;10.88;;;;;;;;;;5015673;28;20526;-78
2022/08/16 11:23:23;;;;;;;18.33;10.80;;;;;;;;;;5023405;28;20025;-78
2022/08/16 11:25:48;;;;;;;18.38;10.65;;;;;;;;;;5040444;28;20033;-77
2022/08/16 11:28:14;;;;;;;16.20;10.52;;;;;;;;;;5039973;28;20531;-82
2022/08/16 11:30:40;;;;;;;14.20;10.77;;;;;;;;;;5062512;28;20031;-83
2022/08/16 11:33:08;;;;;;;13.98;10.85;;;;;;;;;;5045663;28;20036;-80
2022/08/16 11:35:34;;;;;;;16.13;9.27;;;;;;;;;;5041964;28;20017;-80
2022/08/16 11:38:01;;;;;;;27.13;10.63;;;;;;;;;;5019041;28;20040;-79
2022/08/16 11:40:36;;;;;;;13.77;9.18;;;;;;;;;;5024192;28;20109;-82
2022/08/16 11:43:02;;;;;;;11.57;8.02;;;;;;;;;;5039299;28;20040;-81
2022/08/16 11:45:27;;;;;;;29.05;10.48;;;;;;;;;;5030523;28;20100;-80
2022/08/16 11:47:54;;;;;;;12.15;8.10;;;;;;;;;;5025722;28;20021;-82
2022/08/16 11:50:20;;;;;;;14.23;9.05;;;;;;;;;;5024336;28;20025;-82
2022/08/16 11:52:45;;;;;;;19.13;9.05;;;;;;;;;;5045888;28;20089;-82
2022/08/16 11:55:12;;;;;;;18.20;10.15;;;;;;;;;;5025477;28;20038;-85
2022/08/16 11:57:37;;;;;;;13.23;9.25;;;;;;;;;;5027120;28;20040;-79
2022/08/16 12:00:10;;;;;;;15.25;9.57;;;;;;;;;;5028032;28;20026;-79
2022/08/16 12:02:35;;;;;;;12.80;10.02;;;;;;;;;;5026068;28;20021;-80
2022/08/16 12:05:00;;;;;;;17.17;10.93;;;;;;;;;;5028069;28;20021;-80
2022/08/16 12:07:26;;;;;;;15.45;11.50;;;;;;;;;;5044749;28;20722;-80
2022/08/16 12:09:52;;;;;;;16.20;12.63;;;;;;;;;;5024343;28;20455;-79
2022/08/16 12:12:17;;;;;;;14.52;10.68;;;;;;;;;;5026054;28;20352;-80
2022/08/16 12:14:42;;;;;;;15.90;11.40;;;;;;;;;;5042487;28;20037;-81
2022/08/16 12:17:08;;;;;;;14.30;10.70;;;;;;;;;;5024497;28;20286;-81
2022/08/16 12:19:33;;;;;;;13.57;10.80;;;;;;;;;;5023420;28;20097;-80
2022/08/16 12:21:58;;;;;;;13.98;10.43;;;;;;;;;;5029385;28;20431;-81
2022/08/16 12:24:24;;;;;;;14.73;11.88;;;;;;;;;;5026536;28;20072;-78
2022/08/16 12:26:49;;;;;;;13.75;10.68;;;;;;;;;;5042747;28;20102;-79
2022/08/16 12:29:15;;;;;;;18.38;12.20;;;;;;;;;;5027002;28;20044;-78
2022/08/16 12:31:40;;;;;;;17.40;11.30;;;;;;;;;;5024653;28;20029;-79
2022/08/16 12:34:06;;;;;;;16.58;12.48;;;;;;;;;;5025116;28;20037;-79
2022/08/16 12:36:34;;;;;;;16.13;11.88;;;;;;;;;;5020663;28;20033;-79
2022/08/16 12:38:59;;;;;;;17.40;11.77;;;;;;;;;;5026543;28;20025;-78
2022/08/16 12:41:24;;;;;;;14.02;11.57;;;;;;;;;;5026131;28;20572;-78
2022/08/16 12:43:50;;;;;;;15.13;10.23;;;;;;;;;;5023439;28;20025;-78
2022/08/16 12:46:15;;;;;;;21.42;11.55;;;;;;;;;;5022291;28;20274;-79
2022/08/16 12:48:59;;;;;;;14.67;11.90;;;;;;;;;;5028411;28;20029;-79
2022/08/16 12:51:27;;;;;;;18.58;11.70;;;;;;;;;;5023174;28;20271;-79
2022/08/16 12:53:54;;;;;;;16.73;11.68;;;;;;;;;;5027213;28;20032;-80
2022/08/16 12:56:20;;;;;;;14.45;11.07;;;;;;;;;;5020756;28;20143;-78
2022/08/16 12:58:49;;;;;;;17.60;11.60;;;;;;;;;;5040967;28;20104;-79
2022/08/16 13:01:23;;;;;;;13.40;11.73;;;;;;;;;;5023483;28;20030;-78
2022/08/16 13:03:49;;;;;;;18.70;13.18;;;;;;;;;;5023084;28;20022;-79
2022/08/16 13:06:14;;;;;;;23.98;12.15;;;;;;;;;;5027872;28;20508;-79
2022/08/16 13:08:43;;;;;;;18.73;11.30;;;;;;;;;;5037734;28;20045;-79
2022/08/16 13:11:09;;;;;;;16.20;10.82;;;;;;;;;;5048592;28;20033;-79
2022/08/16 13:13:34;;;;;;;22.20;10.73;;;;;;;;;;5036743;28;20029;-79
2022/08/16 13:16:00;;;;;;;11.85;10.45;;;;;;;;;;5025782;28;20029;-80
2022/08/16 13:18:28;;;;;;;15.10;10.80;;;;;;;;;;5024570;28;20083;-79
2022/08/16 13:20:54;;;;;;;11.93;10.68;;;;;;;;;;5056093;28;20061;-79
2022/08/16 13:23:19;;;;;;;14.70;10.55;;;;;;;;;;5028642;28;20030;-80
2022/08/16 13:25:45;;;;;;;19.20;13.45;;;;;;;;;;5042619;28;20013;-80
2022/08/16 13:28:11;;;;;;;26.02;15.57;;;;;;;;;;5059334;28;20048;-80
2022/08/16 13:30:39;;;;;;;25.75;16.58;;;;;;;;;;5023441;28;20051;-78
2022/08/16 13:33:06;;;;;;;23.42;16.27;;;;;;;;;;5024637;28;20030;-81
2022/08/16 13:35:33;;;;;;;30.38;18.70;;;;;;;;;;5024526;28;20033;-79
2022/08/16 13:37:58;;;;;;;33.58;22.23;;;;;;;;;;5022792;28;20061;-80
2022/08/16 13:40:23;;;;;;;35.93;22.20;;;;;;;;;;5020384;28;20570;-79
2022/08/16 13:42:51;;;;;;;30.52;20.33;;;;;;;;;;5019201;28;20870;-80
2022/08/16 13:45:16;;;;;;;35.85;22.48;;;;;;;;;;5035430;28;20047;-79
2022/08/16 13:47:41;;;;;;;43.60;23.90;;;;;;;;;;5020636;28;20477;-79
2022/08/16 13:50:07;;;;;;;34.63;23.20;;;;;;;;;;5026106;28;22556;-79
2022/08/16 13:52:33;;;;;;;32.63;24.27;;;;;;;;;;5036229;28;20037;-79
2022/08/16 13:54:58;;;;;;;38.60;23.88;;;;;;;;;;5022059;28;20480;-79
2022/08/16 13:57:24;;;;;;;31.60;21.92;;;;;;;;;;5036275;28;20030;-79
2022/08/16 13:59:49;;;;;;;36.33;25.57;;;;;;;;;;5027083;28;20033;-79
2022/08/16 14:02:14;;;;;;;33.13;23.53;;;;;;;;;;5052907;28;20364;-79
2022/08/16 14:04:41;;;;;;;40.90;27.90;;;;;;;;;;5037481;28;20938;-79
2022/08/16 14:07:07;;;;;;;44.28;25.35;;;;;;;;;;5034318;28;20871;-79
2022/08/16 14:09:35;;;;;;;44.30;27.27;;;;;;;;;;5039935;28;20398;-79
2022/08/16 14:12:01;;;;;;;39.70;26.33;;;;;;;;;;5025231;28;20071;-79